sensor_id;sensor_type;location;lat;lon;timestamp;pressure;altitude;pressure_sealevel;temperature
45034;BMP280;30771;47.988;-4.186;2024-01-27T00:01:51;103047.78;;;5.71
45034;BMP280;30771;47.988;-4.186;2024-01-27T00:04:17;103059.06;;;5.72
45034;BMP280;30771;47.988;-4.186;2024-01-27T00:06:44;103040.84;;;5.70
45034;BMP280;30771;47.988;-4.186;2024-01-27T00:09:11;103033.00;;;5.70
45034;BMP280;30771;47.988;-4.186;2024-01-27T00:11:38;103022.78;;;5.67
45034;BMP280;30771;47.988;-4.186;2024-01-27T00:14:04;103014.00;;;5.68
45034;BMP280;30771;47.988;-4.186;2024-01-27T00:16:31;103001.88;;;5.67
45034;BMP280;30771;47.988;-4.186;2024-01-27T00:18:58;102991.41;;;5.67
45034;BMP280;30771;47.988;-4.186;2024-01-27T00:21:25;102984.59;;;5.65
45034;BMP280;30771;47.988;-4.186;2024-01-27T00:23:52;102984.59;;;5.65
45034;BMP280;30771;47.988;-4.186;2024-01-27T00:26:18;102981.16;;;5.64
45034;BMP280;30771;47.988;-4.186;2024-01-27T00:28:45;102976.13;;;5.61
45034;BMP280;30771;47.988;-4.186;2024-01-27T00:31:12;102972.56;;;5.62
45034;BMP280;30771;47.988;-4.186;2024-01-27T00:33:39;102967.34;;;5.62
45034;BMP280;30771;47.988;-4.186;2024-01-27T00:36:06;102959.72;;;5.59
45034;BMP280;30771;47.988;-4.186;2024-01-27T00:38:33;102954.56;;;5.58
45034;BMP280;30771;47.988;-4.186;2024-01-27T00:40:59;102956.56;;;5.54
45034;BMP280;30771;47.988;-4.186;2024-01-27T00:43:26;102949.56;;;5.55
45034;BMP280;30771;47.988;-4.186;2024-01-27T00:45:53;102950.50;;;5.54
45034;BMP280;30771;47.988;-4.186;2024-01-27T00:48:19;102952.28;;;5.53
45034;BMP280;30771;47.988;-4.186;2024-01-27T00:50:46;102945.50;;;5.51
45034;BMP280;30771;47.988;-4.186;2024-01-27T00:53:13;102945.50;;;5.51
45034;BMP280;30771;47.988;-4.186;2024-01-27T00:55:40;102942.88;;;5.51
45034;BMP280;30771;47.988;-4.186;2024-01-27T00:58:07;102930.13;;;5.46
45034;BMP280;30771;47.988;-4.186;2024-01-27T01:00:33;102941.28;;;5.48
45034;BMP280;30771;47.988;-4.186;2024-01-27T01:03:00;102936.69;;;5.39
45034;BMP280;30771;47.988;-4.186;2024-01-27T01:05:27;102938.34;;;5.40
45034;BMP280;30771;47.988;-4.186;2024-01-27T01:07:54;102932.41;;;5.38
45034;BMP280;30771;47.988;-4.186;2024-01-27T01:10:21;102932.41;;;5.38
45034;BMP280;30771;47.988;-4.186;2024-01-27T01:12:47;102924.88;;;5.34
45034;BMP280;30771;47.988;-4.186;2024-01-27T01:15:14;102928.94;;;5.38
45034;BMP280;30771;47.988;-4.186;2024-01-27T01:17:41;102917.69;;;5.37
45034;BMP280;30771;47.988;-4.186;2024-01-27T01:20:08;102902.00;;;5.37
45034;BMP280;30771;47.988;-4.186;2024-01-27T01:22:35;102894.97;;;5.38
45034;BMP280;30771;47.988;-4.186;2024-01-27T01:25:02;102885.38;;;5.38
45034;BMP280;30771;47.988;-4.186;2024-01-27T01:27:29;102881.91;;;5.38
45034;BMP280;30771;47.988;-4.186;2024-01-27T01:29:55;102868.97;;;5.36
45034;BMP280;30771;47.988;-4.186;2024-01-27T01:32:22;102861.13;;;5.36
45034;BMP280;30771;47.988;-4.186;2024-01-27T01:34:49;102857.66;;;5.36
45034;BMP280;30771;47.988;-4.186;2024-01-27T01:37:16;102856.94;;;5.34
45034;BMP280;30771;47.988;-4.186;2024-01-27T01:39:42;102849.41;;;5.29
45034;BMP280;30771;47.988;-4.186;2024-01-27T01:42:09;102850.06;;;5.33
45034;BMP280;30771;47.988;-4.186;2024-01-27T01:44:36;102846.69;;;5.31
45034;BMP280;30771;47.988;-4.186;2024-01-27T01:47:03;102835.63;;;5.27
45034;BMP280;30771;47.988;-4.186;2024-01-27T01:49:31;102823.41;;;5.28
45034;BMP280;30771;47.988;-4.186;2024-01-27T01:51:58;102826.81;;;5.28
45034;BMP280;30771;47.988;-4.186;2024-01-27T01:54:24;102819.81;;;5.29
45034;BMP280;30771;47.988;-4.186;2024-01-27T01:56:58;102817.31;;;5.27
45034;BMP280;30771;47.988;-4.186;2024-01-27T01:59:25;102812.09;;;5.27
45034;BMP280;30771;47.988;-4.186;2024-01-27T02:01:52;102799.88;;;5.28
45034;BMP280;30771;47.988;-4.186;2024-01-27T02:04:19;102800.91;;;5.25
45034;BMP280;30771;47.988;-4.186;2024-01-27T02:06:45;102799.47;;;5.21
45034;BMP280;30771;47.988;-4.186;2024-01-27T02:09:13;102801.34;;;5.19
45034;BMP280;30771;47.988;-4.186;2024-01-27T02:11:40;102805.09;;;5.15
45034;BMP280;30771;47.988;-4.186;2024-01-27T02:14:07;102791.94;;;5.17
45034;BMP280;30771;47.988;-4.186;2024-01-27T02:16:34;102780.75;;;5.15
45034;BMP280;30771;47.988;-4.186;2024-01-27T02:19:00;102774.88;;;5.11
45034;BMP280;30771;47.988;-4.186;2024-01-27T02:21:27;102772.28;;;5.11
45034;BMP280;30771;47.988;-4.186;2024-01-27T02:23:54;102759.97;;;5.13
45034;BMP280;30771;47.988;-4.186;2024-01-27T02:26:21;102767.06;;;5.11
45034;BMP280;30771;47.988;-4.186;2024-01-27T02:28:48;102764.34;;;5.13
45034;BMP280;30771;47.988;-4.186;2024-01-27T02:31:14;102757.44;;;5.12
45034;BMP280;30771;47.988;-4.186;2024-01-27T02:33:41;102751.38;;;5.11
45034;BMP280;30771;47.988;-4.186;2024-01-27T02:36:08;102751.38;;;5.11
45034;BMP280;30771;47.988;-4.186;2024-01-27T02:38:35;102742.63;;;5.12
45034;BMP280;30771;47.988;-4.186;2024-01-27T02:41:02;102746.91;;;5.13
45034;BMP280;30771;47.988;-4.186;2024-01-27T02:43:28;102722.03;;;5.08
45034;BMP280;30771;47.988;-4.186;2024-01-27T02:45:55;102721.06;;;5.09
45034;BMP280;30771;47.988;-4.186;2024-01-27T02:48:22;102727.16;;;5.09
45034;BMP280;30771;47.988;-4.186;2024-01-27T02:50:48;102723.81;;;5.07
45034;BMP280;30771;47.988;-4.186;2024-01-27T02:53:15;102731.75;;;5.06
45034;BMP280;30771;47.988;-4.186;2024-01-27T02:55:42;102725.91;;;5.02
45034;BMP280;30771;47.988;-4.186;2024-01-27T02:58:08;102735.31;;;5.05
45034;BMP280;30771;47.988;-4.186;2024-01-27T03:00:35;102724.16;;;5.03
45034;BMP280;30771;47.988;-4.186;2024-01-27T03:03:02;102723.19;;;5.03
45034;BMP280;30771;47.988;-4.186;2024-01-27T03:05:29;102709.41;;;5.01
45034;BMP280;30771;47.988;-4.186;2024-01-27T03:07:57;102710.56;;;4.97
45034;BMP280;30771;47.988;-4.186;2024-01-27T03:10:23;102702.00;;;4.95
45034;BMP280;30771;47.988;-4.186;2024-01-27T03:12:50;102703.13;;;4.91
45034;BMP280;30771;47.988;-4.186;2024-01-27T03:15:17;102694.69;;;4.88
45034;BMP280;30771;47.988;-4.186;2024-01-27T03:17:44;102688.84;;;4.84
45034;BMP280;30771;47.988;-4.186;2024-01-27T03:20:10;102695.81;;;4.84
45034;BMP280;30771;47.988;-4.186;2024-01-27T03:22:37;102693.31;;;4.82
45034;BMP280;30771;47.988;-4.186;2024-01-27T03:25:06;102678.69;;;4.80
45034;BMP280;30771;47.988;-4.186;2024-01-27T03:27:33;102672.63;;;4.79
45034;BMP280;30771;47.988;-4.186;2024-01-27T03:30:01;102668.69;;;4.74
45034;BMP280;30771;47.988;-4.186;2024-01-27T03:32:30;102679.63;;;4.79
45034;BMP280;30771;47.988;-4.186;2024-01-27T03:35:00;102678.91;;;4.77
45034;BMP280;30771;47.988;-4.186;2024-01-27T03:37:27;102662.69;;;4.72
45034;BMP280;30771;47.988;-4.186;2024-01-27T03:39:53;102668.69;;;4.74
45034;BMP280;30771;47.988;-4.186;2024-01-27T03:42:20;102670.53;;;4.72
45034;BMP280;30771;47.988;-4.186;2024-01-27T03:44:47;102674.84;;;4.73
45034;BMP280;30771;47.988;-4.186;2024-01-27T03:47:14;102668.06;;;4.70
45034;BMP280;30771;47.988;-4.186;2024-01-27T03:49:40;102663.66;;;4.71
45034;BMP280;30771;47.988;-4.186;2024-01-27T03:52:07;102668.06;;;4.70
45034;BMP280;30771;47.988;-4.186;2024-01-27T03:54:34;102660.44;;;4.67
45034;BMP280;30771;47.988;-4.186;2024-01-27T03:57:01;102652.59;;;4.67
45034;BMP280;30771;47.988;-4.186;2024-01-27T03:59:28;102660.53;;;4.66
45034;BMP280;30771;47.988;-4.186;2024-01-27T04:01:54;102660.44;;;4.67
45034;BMP280;30771;47.988;-4.186;2024-01-27T04:04:22;102657.81;;;4.67
45034;BMP280;30771;47.988;-4.186;2024-01-27T04:06:50;102658.03;;;4.64
45034;BMP280;30771;47.988;-4.186;2024-01-27T04:09:17;102659.81;;;4.64
45034;BMP280;30771;47.988;-4.186;2024-01-27T04:11:45;102652.38;;;4.58
45034;BMP280;30771;47.988;-4.186;2024-01-27T04:14:12;102651.34;;;4.60
45034;BMP280;30771;47.988;-4.186;2024-01-27T04:16:38;102653.41;;;4.55
45034;BMP280;30771;47.988;-4.186;2024-01-27T04:19:06;102650.59;;;4.58
45034;BMP280;30771;47.988;-4.186;2024-01-27T04:21:33;102648.09;;;4.57
45034;BMP280;30771;47.988;-4.186;2024-01-27T04:23:59;102640.25;;;4.57
45034;BMP280;30771;47.988;-4.186;2024-01-27T04:26:27;102636.91;;;4.55
45034;BMP280;30771;47.988;-4.186;2024-01-27T04:28:54;102626.59;;;4.53
45034;BMP280;30771;47.988;-4.186;2024-01-27T04:31:20;102635.25;;;4.54
45034;BMP280;30771;47.988;-4.186;2024-01-27T04:33:48;102635.38;;;4.52
45034;BMP280;30771;47.988;-4.186;2024-01-27T04:36:25;102622.34;;;4.52
45034;BMP280;30771;47.988;-4.186;2024-01-27T04:38:51;102628.38;;;4.53
45034;BMP280;30771;47.988;-4.186;2024-01-27T04:41:18;102614.50;;;4.52
45034;BMP280;30771;47.988;-4.186;2024-01-27T04:43:45;102615.31;;;4.53
45034;BMP280;30771;47.988;-4.186;2024-01-27T04:46:11;102600.72;;;4.50
45034;BMP280;30771;47.988;-4.186;2024-01-27T04:48:38;102587.28;;;4.44
45034;BMP280;30771;47.988;-4.186;2024-01-27T04:51:05;102593.94;;;4.48
45034;BMP280;30771;47.988;-4.186;2024-01-27T04:53:32;102587.81;;;4.49
45034;BMP280;30771;47.988;-4.186;2024-01-27T04:55:59;102592.91;;;4.50
45034;BMP280;30771;47.988;-4.186;2024-01-27T04:58:26;102592.91;;;4.50
45034;BMP280;30771;47.988;-4.186;2024-01-27T05:00:52;102585.00;;;4.52
45034;BMP280;30771;47.988;-4.186;2024-01-27T05:03:19;102579.78;;;4.52
45034;BMP280;30771;47.988;-4.186;2024-01-27T05:05:46;102569.19;;;4.53
45034;BMP280;30771;47.988;-4.186;2024-01-27T05:08:13;102559.84;;;4.51
45034;BMP280;30771;47.988;-4.186;2024-01-27T05:10:40;102564.72;;;4.55
45034;BMP280;30771;47.988;-4.186;2024-01-27T05:13:06;102553.22;;;4.58
45034;BMP280;30771;47.988;-4.186;2024-01-27T05:15:33;102558.25;;;4.61
45034;BMP280;30771;47.988;-4.186;2024-01-27T05:18:00;102549.69;;;4.59
45034;BMP280;30771;47.988;-4.186;2024-01-27T05:20:27;102559.16;;;4.60
45034;BMP280;30771;47.988;-4.186;2024-01-27T05:22:54;102560.94;;;4.59
45034;BMP280;30771;47.988;-4.186;2024-01-27T05:25:21;102564.38;;;4.60
45034;BMP280;30771;47.988;-4.186;2024-01-27T05:27:47;102557.41;;;4.60
45034;BMP280;30771;47.988;-4.186;2024-01-27T05:30:15;102552.91;;;4.62
45034;BMP280;30771;47.988;-4.186;2024-01-27T05:32:42;102550.31;;;4.62
45034;BMP280;30771;47.988;-4.186;2024-01-27T05:35:09;102543.44;;;4.61
45034;BMP280;30771;47.988;-4.186;2024-01-27T05:37:37;102536.41;;;4.62
45034;BMP280;30771;47.988;-4.186;2024-01-27T05:40:06;102537.38;;;4.61
45034;BMP280;30771;47.988;-4.186;2024-01-27T05:42:33;102530.38;;;4.61
45034;BMP280;30771;47.988;-4.186;2024-01-27T05:45:00;102518.38;;;4.59
45034;BMP280;30771;47.988;-4.186;2024-01-27T05:47:27;102510.44;;;4.60
45034;BMP280;30771;47.988;-4.186;2024-01-27T05:49:53;102499.34;;;4.57
45034;BMP280;30771;47.988;-4.186;2024-01-27T05:52:20;102509.59;;;4.60
45034;BMP280;30771;47.988;-4.186;2024-01-27T05:54:51;102510.56;;;4.59
45034;BMP280;30771;47.988;-4.186;2024-01-27T05:57:18;102523.50;;;4.60
45034;BMP280;30771;47.988;-4.186;2024-01-27T05:59:46;102520.88;;;4.60
45034;BMP280;30771;47.988;-4.186;2024-01-27T06:02:13;102512.13;;;4.61
45034;BMP280;30771;47.988;-4.186;2024-01-27T06:04:40;102518.16;;;4.62
45034;BMP280;30771;47.988;-4.186;2024-01-27T06:07:07;102532.03;;;4.62
45034;BMP280;30771;47.988;-4.186;2024-01-27T06:09:34;102531.19;;;4.62
45034;BMP280;30771;47.988;-4.186;2024-01-27T06:12:01;102526.94;;;4.61
45034;BMP280;30771;47.988;-4.186;2024-01-27T06:14:27;102530.38;;;4.61
45034;BMP280;30771;47.988;-4.186;2024-01-27T06:16:54;102532.88;;;4.63
45034;BMP280;30771;47.988;-4.186;2024-01-27T06:19:21;102532.88;;;4.63
45034;BMP280;30771;47.988;-4.186;2024-01-27T06:21:48;102522.56;;;4.61
45034;BMP280;30771;47.988;-4.186;2024-01-27T06:24:14;102528.38;;;4.65
45034;BMP280;30771;47.988;-4.186;2024-01-27T06:26:41;102539.78;;;4.64
45034;BMP280;30771;47.988;-4.186;2024-01-27T06:29:08;102539.78;;;4.64
45034;BMP280;30771;47.988;-4.186;2024-01-27T06:31:35;102535.38;;;4.64
45034;BMP280;30771;47.988;-4.186;2024-01-27T06:34:01;102539.34;;;4.70
45034;BMP280;30771;47.988;-4.186;2024-01-27T06:36:28;102536.75;;;4.70
45034;BMP280;30771;47.988;-4.186;2024-01-27T06:38:55;102538.38;;;4.71
45034;BMP280;30771;47.988;-4.186;2024-01-27T06:41:22;102527.16;;;4.70
45034;BMP280;30771;47.988;-4.186;2024-01-27T06:43:48;102518.34;;;4.71
45034;BMP280;30771;47.988;-4.186;2024-01-27T06:46:15;102515.84;;;4.70
45034;BMP280;30771;47.988;-4.186;2024-01-27T06:48:42;102525.94;;;4.74
45034;BMP280;30771;47.988;-4.186;2024-01-27T06:51:09;102518.97;;;4.75
45034;BMP280;30771;47.988;-4.186;2024-01-27T06:53:36;102493.81;;;4.74
45034;BMP280;30771;47.988;-4.186;2024-01-27T06:56:02;102497.88;;;4.78
45034;BMP280;30771;47.988;-4.186;2024-01-27T06:58:29;102483.88;;;4.79
45034;BMP280;30771;47.988;-4.186;2024-01-27T07:00:56;102482.94;;;4.80
45034;BMP280;30771;47.988;-4.186;2024-01-27T07:03:23;102486.28;;;4.82
45034;BMP280;30771;47.988;-4.186;2024-01-27T07:05:50;102478.66;;;4.79
45034;BMP280;30771;47.988;-4.186;2024-01-27T07:08:17;102476.56;;;4.84
45034;BMP280;30771;47.988;-4.186;2024-01-27T07:10:44;102471.44;;;4.82
45034;BMP280;30771;47.988;-4.186;2024-01-27T07:13:10;102468.84;;;4.82
45034;BMP280;30771;47.988;-4.186;2024-01-27T07:15:37;102464.66;;;4.80
45034;BMP280;30771;47.988;-4.186;2024-01-27T07:18:04;102469.47;;;4.86
45034;BMP280;30771;47.988;-4.186;2024-01-27T07:20:32;102457.34;;;4.85
45034;BMP280;30771;47.988;-4.186;2024-01-27T07:22:59;102468.50;;;4.87
45034;BMP280;30771;47.988;-4.186;2024-01-27T07:25:25;102464.13;;;4.87
45034;BMP280;30771;47.988;-4.186;2024-01-27T07:27:54;102463.06;;;4.90
45034;BMP280;30771;47.988;-4.186;2024-01-27T07:30:22;102451.69;;;4.91
45034;BMP280;30771;47.988;-4.186;2024-01-27T07:32:49;102454.53;;;4.88
45034;BMP280;30771;47.988;-4.186;2024-01-27T07:35:16;102457.22;;;4.86
45034;BMP280;30771;47.988;-4.186;2024-01-27T07:37:42;102467.44;;;4.89
45034;BMP280;30771;47.988;-4.186;2024-01-27T07:40:10;102465.81;;;4.88
45034;BMP280;30771;47.988;-4.186;2024-01-27T07:42:37;102480.50;;;4.89
45034;BMP280;30771;47.988;-4.186;2024-01-27T07:45:04;102483.94;;;4.90
45034;BMP280;30771;47.988;-4.186;2024-01-27T07:47:31;102480.63;;;4.88
45034;BMP280;30771;47.988;-4.186;2024-01-27T07:49:58;102490.25;;;4.87
45034;BMP280;30771;47.988;-4.186;2024-01-27T07:52:25;102486.69;;;4.88
45034;BMP280;30771;47.988;-4.186;2024-01-27T07:54:51;102492.69;;;4.89
45034;BMP280;30771;47.988;-4.186;2024-01-27T07:57:18;102494.38;;;4.90
45034;BMP280;30771;47.988;-4.186;2024-01-27T07:59:45;102490.84;;;4.91
45034;BMP280;30771;47.988;-4.186;2024-01-27T08:02:11;102478.50;;;4.93
45034;BMP280;30771;47.988;-4.186;2024-01-27T08:04:38;102462.00;;;4.92
45034;BMP280;30771;47.988;-4.186;2024-01-27T08:07:05;102466.38;;;4.92
45034;BMP280;30771;47.988;-4.186;2024-01-27T08:09:36;102449.78;;;4.93
45034;BMP280;30771;47.988;-4.186;2024-01-27T08:12:05;102441.00;;;4.94
45034;BMP280;30771;47.988;-4.186;2024-01-27T08:14:32;102437.34;;;4.96
45034;BMP280;30771;47.988;-4.186;2024-01-27T08:17:00;102448.50;;;4.98
45034;BMP280;30771;47.988;-4.186;2024-01-27T08:19:27;102451.88;;;5.00
45034;BMP280;30771;47.988;-4.186;2024-01-27T08:21:54;102449.13;;;5.02
45034;BMP280;30771;47.988;-4.186;2024-01-27T08:24:21;102440.59;;;5.00
45034;BMP280;30771;47.988;-4.186;2024-01-27T08:26:51;102443.56;;;5.07
45034;BMP280;30771;47.988;-4.186;2024-01-27T08:29:18;102447.00;;;5.07
45034;BMP280;30771;47.988;-4.186;2024-01-27T08:31:44;102443.34;;;5.10
45034;BMP280;30771;47.988;-4.186;2024-01-27T08:34:11;102425.44;;;5.16
45034;BMP280;30771;47.988;-4.186;2024-01-27T08:36:39;102419.06;;;5.20
45034;BMP280;30771;47.988;-4.186;2024-01-27T08:39:06;102420.59;;;5.23
45034;BMP280;30771;47.988;-4.186;2024-01-27T08:41:39;102428.81;;;5.29
45034;BMP280;30771;47.988;-4.186;2024-01-27T08:44:05;102420.56;;;5.35
45034;BMP280;30771;47.988;-4.186;2024-01-27T08:46:32;102414.84;;;5.41
45034;BMP280;30771;47.988;-4.186;2024-01-27T08:48:59;102415.13;;;5.49
45034;BMP280;30771;47.988;-4.186;2024-01-27T08:51:26;102401.94;;;5.51
45034;BMP280;30771;47.988;-4.186;2024-01-27T08:53:52;102395.88;;;5.61
45034;BMP280;30771;47.988;-4.186;2024-01-27T08:56:19;102391.72;;;5.70
45034;BMP280;30771;47.988;-4.186;2024-01-27T08:58:46;102389.72;;;5.73
45034;BMP280;30771;47.988;-4.186;2024-01-27T09:01:16;102380.31;;;5.82
45034;BMP280;30771;47.988;-4.186;2024-01-27T09:03:43;102370.31;;;5.87
45034;BMP280;30771;47.988;-4.186;2024-01-27T09:06:10;102364.78;;;5.92
45034;BMP280;30771;47.988;-4.186;2024-01-27T09:08:37;102353.25;;;5.94
45034;BMP280;30771;47.988;-4.186;2024-01-27T09:11:04;102358.91;;;5.99
45034;BMP280;30771;47.988;-4.186;2024-01-27T09:13:31;102363.69;;;6.05
45034;BMP280;30771;47.988;-4.186;2024-01-27T09:15:58;102365.66;;;6.13
45034;BMP280;30771;47.988;-4.186;2024-01-27T09:18:26;102360.78;;;6.19
45034;BMP280;30771;47.988;-4.186;2024-01-27T09:20:54;102354.25;;;6.25
45034;BMP280;30771;47.988;-4.186;2024-01-27T09:23:21;102349.34;;;6.31
45034;BMP280;30771;47.988;-4.186;2024-01-27T09:25:48;102328.88;;;6.36
45034;BMP280;30771;47.988;-4.186;2024-01-27T09:28:15;102331.84;;;6.43
45034;BMP280;30771;47.988;-4.186;2024-01-27T09:30:42;102328.72;;;6.49
45034;BMP280;30771;47.988;-4.186;2024-01-27T09:33:10;102338.00;;;6.53
45034;BMP280;30771;47.988;-4.186;2024-01-27T09:35:37;102332.50;;;6.56
45034;BMP280;30771;47.988;-4.186;2024-01-27T09:38:05;102330.09;;;6.64
45034;BMP280;30771;47.988;-4.186;2024-01-27T09:40:32;102318.28;;;6.70
45034;BMP280;30771;47.988;-4.186;2024-01-27T09:42:59;102315.06;;;6.77
45034;BMP280;30771;47.988;-4.186;2024-01-27T09:45:26;102316.19;;;6.84
45034;BMP280;30771;47.988;-4.186;2024-01-27T09:47:56;102316.47;;;6.91
45034;BMP280;30771;47.988;-4.186;2024-01-27T09:50:24;102320.03;;;7.01
45034;BMP280;30771;47.988;-4.186;2024-01-27T09:52:52;102325.31;;;7.10
45034;BMP280;30771;47.988;-4.186;2024-01-27T09:55:19;102332.28;;;7.21
45034;BMP280;30771;47.988;-4.186;2024-01-27T09:57:46;102318.94;;;7.24
45034;BMP280;30771;47.988;-4.186;2024-01-27T10:00:13;102330.25;;;7.34
45034;BMP280;30771;47.988;-4.186;2024-01-27T10:02:43;102316.63;;;7.40
45034;BMP280;30771;47.988;-4.186;2024-01-27T10:05:11;102318.47;;;7.49
45034;BMP280;30771;47.988;-4.186;2024-01-27T10:07:38;102327.44;;;7.56
45034;BMP280;30771;47.988;-4.186;2024-01-27T10:10:06;102323.75;;;7.59
45034;BMP280;30771;47.988;-4.186;2024-01-27T10:12:37;102332.47;;;7.69
45034;BMP280;30771;47.988;-4.186;2024-01-27T10:15:06;102326.84;;;7.73
45034;BMP280;30771;47.988;-4.186;2024-01-27T10:17:33;102329.75;;;7.80
45034;BMP280;30771;47.988;-4.186;2024-01-27T10:20:04;102336.81;;;7.89
45034;BMP280;30771;47.988;-4.186;2024-01-27T10:22:38;102330.88;;;7.96
45034;BMP280;30771;47.988;-4.186;2024-01-27T10:25:06;102335.75;;;8.01
45034;BMP280;30771;47.988;-4.186;2024-01-27T10:27:33;102346.66;;;8.06
45034;BMP280;30771;47.988;-4.186;2024-01-27T10:30:01;102341.84;;;8.11
45034;BMP280;30771;47.988;-4.186;2024-01-27T10:32:28;102338.66;;;8.17
45034;BMP280;30771;47.988;-4.186;2024-01-27T10:35:02;102334.56;;;8.24
45034;BMP280;30771;47.988;-4.186;2024-01-27T10:37:29;102329.69;;;8.29
45034;BMP280;30771;47.988;-4.186;2024-01-27T10:40:14;102312.56;;;8.34
45034;BMP280;30771;47.988;-4.186;2024-01-27T10:42:43;102313.81;;;8.40
45034;BMP280;30771;47.988;-4.186;2024-01-27T10:45:11;102321.13;;;8.46
45034;BMP280;30771;47.988;-4.186;2024-01-27T10:47:39;102317.41;;;8.49
45034;BMP280;30771;47.988;-4.186;2024-01-27T10:50:08;102318.63;;;8.54
45034;BMP280;30771;47.988;-4.186;2024-01-27T10:52:39;102316.56;;;8.58
45034;BMP280;30771;47.988;-4.186;2024-01-27T10:55:09;102316.84;;;8.64
45034;BMP280;30771;47.988;-4.186;2024-01-27T10:57:36;102326.22;;;8.67
45034;BMP280;30771;47.988;-4.186;2024-01-27T11:00:05;102330.09;;;8.72
45034;BMP280;30771;47.988;-4.186;2024-01-27T11:02:36;102320.44;;;8.73
45034;BMP280;30771;47.988;-4.186;2024-01-27T11:05:07;102328.97;;;8.84
45034;BMP280;30771;47.988;-4.186;2024-01-27T11:07:38;102332.69;;;8.91
45034;BMP280;30771;47.988;-4.186;2024-01-27T11:10:05;102322.56;;;8.96
45034;BMP280;30771;47.988;-4.186;2024-01-27T11:12:32;102316.91;;;9.01
45034;BMP280;30771;47.988;-4.186;2024-01-27T11:14:59;102309.28;;;9.07
45034;BMP280;30771;47.988;-4.186;2024-01-27T11:17:26;102305.22;;;9.13
45034;BMP280;30771;47.988;-4.186;2024-01-27T11:19:56;102292.63;;;9.16
45034;BMP280;30771;47.988;-4.186;2024-01-27T11:22:27;102290.94;;;9.25
45034;BMP280;30771;47.988;-4.186;2024-01-27T11:25:07;102288.28;;;9.35
45034;BMP280;30771;47.988;-4.186;2024-01-27T11:27:34;102285.03;;;9.41
45034;BMP280;30771;47.988;-4.186;2024-01-27T11:30:03;102269.13;;;9.42
45034;BMP280;30771;47.988;-4.186;2024-01-27T11:32:30;102287.81;;;9.49
45034;BMP280;30771;47.988;-4.186;2024-01-27T11:35:00;102269.19;;;9.50
45034;BMP280;30771;47.988;-4.186;2024-01-27T11:37:30;102267.81;;;9.56
45034;BMP280;30771;47.988;-4.186;2024-01-27T11:40:06;102270.28;;;9.57
45034;BMP280;30771;47.988;-4.186;2024-01-27T11:42:34;102275.94;;;9.62
45034;BMP280;30771;47.988;-4.186;2024-01-27T11:45:01;102283.53;;;9.65
45034;BMP280;30771;47.988;-4.186;2024-01-27T11:47:28;102291.97;;;9.69
45034;BMP280;30771;47.988;-4.186;2024-01-27T11:49:56;102290.00;;;9.71
45034;BMP280;30771;47.988;-4.186;2024-01-27T11:52:24;102276.56;;;9.74
45034;BMP280;30771;47.988;-4.186;2024-01-27T11:54:55;102272.63;;;9.78
45034;BMP280;30771;47.988;-4.186;2024-01-27T11:57:23;102276.63;;;9.82
45034;BMP280;30771;47.988;-4.186;2024-01-27T11:59:50;102273.56;;;9.86
45034;BMP280;30771;47.988;-4.186;2024-01-27T12:02:18;102273.25;;;9.89
45034;BMP280;30771;47.988;-4.186;2024-01-27T12:04:45;102274.75;;;9.92
45034;BMP280;30771;47.988;-4.186;2024-01-27T12:07:12;102278.22;;;9.92
45034;BMP280;30771;47.988;-4.186;2024-01-27T12:09:39;102272.78;;;9.94
45034;BMP280;30771;47.988;-4.186;2024-01-27T12:12:06;102265.59;;;9.96
45034;BMP280;30771;47.988;-4.186;2024-01-27T12:14:41;102270.69;;;9.97
45034;BMP280;30771;47.988;-4.186;2024-01-27T12:17:09;102265.91;;;9.93
45034;BMP280;30771;47.988;-4.186;2024-01-27T12:19:37;102268.22;;;9.96
45034;BMP280;30771;47.988;-4.186;2024-01-27T12:22:04;102259.50;;;9.95
45034;BMP280;30771;47.988;-4.186;2024-01-27T12:24:31;102251.59;;;9.95
45034;BMP280;30771;47.988;-4.186;2024-01-27T12:26:59;102245.22;;;9.98
45034;BMP280;30771;47.988;-4.186;2024-01-27T12:29:26;102235.66;;;9.97
45034;BMP280;30771;47.988;-4.186;2024-01-27T12:31:54;102230.75;;;10.02
45034;BMP280;30771;47.988;-4.186;2024-01-27T12:34:21;102214.81;;;10.03
45034;BMP280;30771;47.988;-4.186;2024-01-27T12:36:49;102211.75;;;10.08
45034;BMP280;30771;47.988;-4.186;2024-01-27T12:39:20;102192.84;;;10.12
45034;BMP280;30771;47.988;-4.186;2024-01-27T12:41:47;102184.94;;;10.12
45034;BMP280;30771;47.988;-4.186;2024-01-27T12:44:13;102177.19;;;10.11
45034;BMP280;30771;47.988;-4.186;2024-01-27T12:46:40;102165.38;;;10.15
45034;BMP280;30771;47.988;-4.186;2024-01-27T12:49:07;102154.19;;;10.13
45034;BMP280;30771;47.988;-4.186;2024-01-27T12:51:34;102162.47;;;10.18
45034;BMP280;30771;47.988;-4.186;2024-01-27T12:54:01;102161.16;;;10.22
45034;BMP280;30771;47.988;-4.186;2024-01-27T12:56:28;102154.59;;;10.26
45034;BMP280;30771;47.988;-4.186;2024-01-27T12:58:55;102143.94;;;10.36
45034;BMP280;30771;47.988;-4.186;2024-01-27T13:01:22;102135.09;;;10.45
45034;BMP280;30771;47.988;-4.186;2024-01-27T13:03:49;102138.59;;;10.53
45034;BMP280;30771;47.988;-4.186;2024-01-27T13:06:17;102133.19;;;10.55
45034;BMP280;30771;47.988;-4.186;2024-01-27T13:08:45;102128.09;;;10.61
45034;BMP280;30771;47.988;-4.186;2024-01-27T13:11:12;102119.72;;;10.66
45034;BMP280;30771;47.988;-4.186;2024-01-27T13:13:40;102114.97;;;10.69
45034;BMP280;30771;47.988;-4.186;2024-01-27T13:16:08;102108.56;;;10.80
45034;BMP280;30771;47.988;-4.186;2024-01-27T13:18:35;102101.97;;;10.92
45034;BMP280;30771;47.988;-4.186;2024-01-27T13:21:03;102087.03;;;11.00
45034;BMP280;30771;47.988;-4.186;2024-01-27T13:23:30;102084.41;;;11.08
45034;BMP280;30771;47.988;-4.186;2024-01-27T13:25:58;102076.19;;;11.20
45034;BMP280;30771;47.988;-4.186;2024-01-27T13:28:42;102064.69;;;11.29
45034;BMP280;30771;47.988;-4.186;2024-01-27T13:31:09;102059.38;;;11.37
45034;BMP280;30771;47.988;-4.186;2024-01-27T13:33:36;102054.28;;;11.35
45034;BMP280;30771;47.988;-4.186;2024-01-27T13:36:03;102059.19;;;11.38
45034;BMP280;30771;47.988;-4.186;2024-01-27T13:38:30;102057.75;;;11.36
45034;BMP280;30771;47.988;-4.186;2024-01-27T13:40:57;102044.19;;;11.31
45034;BMP280;30771;47.988;-4.186;2024-01-27T13:43:23;102060.38;;;11.36
45034;BMP280;30771;47.988;-4.186;2024-01-27T13:45:51;102051.78;;;11.34
45034;BMP280;30771;47.988;-4.186;2024-01-27T13:48:18;102061.19;;;11.36
45034;BMP280;30771;47.988;-4.186;2024-01-27T13:50:45;102049.13;;;11.34
45034;BMP280;30771;47.988;-4.186;2024-01-27T13:53:12;102054.72;;;11.39
45034;BMP280;30771;47.988;-4.186;2024-01-27T13:55:38;102048.81;;;11.45